Time;durP1;ratioP1;P1;durP2;ratioP2;P2;SDS_P1;SDS_P2;PMS_P1;PMS_P2;Temp;Humidity;BMP_temperature;BMP_pressure;BME280_temperature;BME280_humidity;BME280_pressure;Samples;Min_cycle;Max_cycle;Signal;HPM_P1;HPM_P2
2022/06/22 00:01:52;;;;;;;11.38;7.82;;;13.00;99.90;;;;;;5024511;28;20099;-29
2022/06/22 00:04:29;;;;;;;11.55;8.15;;;13.00;99.90;;;;;;5040460;28;20048;-29
2022/06/22 00:06:59;;;;;;;10.32;8.25;;;12.90;99.90;;;;;;5040254;28;20115;-29
2022/06/22 00:09:34;;;;;;;11.57;8.73;;;12.90;99.90;;;;;;5046699;28;20335;-29
2022/06/22 00:12:01;;;;;;;10.50;8.85;;;12.90;99.90;;;;;;5021680;28;20061;-29
2022/06/22 00:14:49;;;;;;;11.45;9.25;;;12.80;99.90;;;;;;5041499;28;20045;-29
2022/06/22 00:17:38;;;;;;;10.43;8.52;;;12.70;99.90;;;;;;5051237;28;20110;-29
2022/06/22 00:20:26;;;;;;;10.23;8.07;;;12.60;99.90;;;;;;5037199;28;20037;-29
2022/06/22 00:23:24;;;;;;;9.45;8.60;;;12.60;99.90;;;;;;5042121;28;20060;-29
2022/06/22 00:25:50;;;;;;;11.40;8.43;;;12.60;99.90;;;;;;4999257;28;20183;-29
2022/06/22 00:28:30;;;;;;;11.45;9.05;;;12.50;99.90;;;;;;5044367;28;20628;-29
2022/06/22 00:31:37;;;;;;;10.38;8.15;;;12.40;99.90;;;;;;5043873;28;20519;-29
2022/06/22 00:34:09;;;;;;;9.95;8.85;;;12.40;99.90;;;;;;5017275;28;20045;-28
2022/06/22 00:37:00;;;;;;;11.18;9.18;;;12.30;99.90;;;;;;5043658;28;20404;-29
2022/06/22 00:39:28;;;;;;;11.48;8.60;;;12.30;99.90;;;;;;5050266;28;20037;-29
2022/06/22 00:42:00;;;;;;;11.10;9.23;;;12.20;99.90;;;;;;5046221;28;20095;-28
2022/06/22 00:44:29;;;;;;;11.15;8.50;;;12.20;99.90;;;;;;5040093;28;20037;-29
2022/06/22 00:47:04;;;;;;;10.73;9.35;;;12.20;99.90;;;;;;5047891;28;20511;-27
2022/06/22 00:49:31;;;;;;;11.98;9.05;;;12.10;99.90;;;;;;5051405;28;20099;-27
2022/06/22 00:52:08;;;;;;;10.60;9.35;;;12.10;99.90;;;;;;5033480;28;20040;-27
2022/06/22 00:54:35;;;;;;;10.63;9.40;;;12.00;99.90;;;;;;5050748;28;20497;-27
2022/06/22 00:57:10;;;;;;;9.55;8.50;;;12.00;99.90;;;;;;5050779;28;20041;-27
2022/06/22 00:59:46;;;;;;;10.90;9.10;;;12.00;99.90;;;;;;5051092;28;20032;-27
2022/06/22 01:02:31;;;;;;;15.20;10.50;;;11.90;99.90;;;;;;5050853;28;20073;-27
2022/06/22 01:05:11;;;;;;;10.95;9.40;;;11.90;99.90;;;;;;5033178;28;20431;-27
2022/06/22 01:08:00;;;;;;;13.52;10.27;;;11.90;99.90;;;;;;5032574;28;20377;-27
2022/06/22 01:10:36;;;;;;;12.07;9.73;;;11.90;99.90;;;;;;5050144;28;20049;-27
2022/06/22 01:13:14;;;;;;;12.07;9.65;;;11.80;99.90;;;;;;5032965;28;20120;-27
2022/06/22 01:15:51;;;;;;;11.02;9.63;;;11.80;99.90;;;;;;5050599;28;20041;-27
2022/06/22 01:18:34;;;;;;;10.68;9.23;;;11.70;99.90;;;;;;5053556;28;20056;-29
2022/06/22 01:21:03;;;;;;;12.98;10.32;;;11.80;99.90;;;;;;5034140;28;20119;-29
2022/06/22 01:23:29;;;;;;;10.68;9.05;;;11.80;99.90;;;;;;5046846;28;20049;-29
2022/06/22 01:26:22;;;;;;;13.50;10.00;;;11.70;99.90;;;;;;5053469;28;20203;-29
2022/06/22 01:28:58;;;;;;;10.45;9.38;;;11.70;99.90;;;;;;5016947;28;20044;-27
2022/06/22 01:31:23;;;;;;;11.77;9.85;;;11.60;99.90;;;;;;5035295;28;20041;-27
2022/06/22 01:33:51;;;;;;;12.07;10.85;;;11.60;99.90;;;;;;5035080;28;20505;-27
2022/06/22 01:36:24;;;;;;;11.68;10.35;;;11.60;99.90;;;;;;5050118;28;20405;-29
2022/06/22 01:38:51;;;;;;;11.30;10.10;;;11.60;99.90;;;;;;5035404;28;20404;-29
2022/06/22 01:41:23;;;;;;;13.18;9.82;;;11.50;99.90;;;;;;5053446;28;20543;-27
2022/06/22 01:44:03;;;;;;;11.75;9.85;;;11.50;99.90;;;;;;5054461;28;20097;-25
2022/06/22 01:47:17;;;;;;;12.57;10.30;;;11.50;99.90;;;;;;5054473;28;20458;-27
2022/06/22 01:50:03;;;;;;;10.38;9.25;;;11.50;99.90;;;;;;4954023;29;20043;-27
2022/06/22 01:52:47;;;;;;;11.80;9.90;;;11.40;99.90;;;;;;4937505;29;20054;-27
2022/06/22 01:55:27;;;;;;;12.38;10.68;;;11.40;99.90;;;;;;5033097;28;20052;-28
2022/06/22 01:58:14;;;;;;;11.18;9.82;;;11.30;99.90;;;;;;5053852;28;20045;-27
2022/06/22 02:00:51;;;;;;;11.40;10.20;;;11.30;99.90;;;;;;5053891;28;20041;-27
2022/06/22 02:03:22;;;;;;;15.38;10.63;;;11.20;99.90;;;;;;5035097;28;20033;-27
2022/06/22 02:05:59;;;;;;;13.10;9.88;;;11.20;99.90;;;;;;5053382;28;20111;-27
2022/06/22 02:08:36;;;;;;;12.07;10.88;;;11.20;99.90;;;;;;5053726;28;20040;-27
2022/06/22 02:11:11;;;;;;;11.10;9.88;;;11.10;99.90;;;;;;5053068;28;20048;-27
2022/06/22 02:13:55;;;;;;;12.02;10.35;;;11.10;99.90;;;;;;5053453;28;20128;-27
2022/06/22 02:16:26;;;;;;;10.93;9.68;;;11.10;99.90;;;;;;5053138;28;20065;-27
2022/06/22 02:19:10;;;;;;;13.43;10.65;;;11.00;99.90;;;;;;5035569;28;20071;-27
2022/06/22 02:21:43;;;;;;;12.25;9.85;;;11.00;99.90;;;;;;5053521;28;20060;-27
2022/06/22 02:24:29;;;;;;;12.50;10.05;;;11.00;99.90;;;;;;5053579;28;20089;-27
2022/06/22 02:27:04;;;;;;;13.20;10.02;;;11.00;99.90;;;;;;5035380;28;20420;-27
2022/06/22 02:29:39;;;;;;;11.23;10.05;;;10.90;99.90;;;;;;5052662;28;20523;-27
2022/06/22 02:32:09;;;;;;;12.35;10.90;;;10.90;99.90;;;;;;5053417;28;20047;-27
2022/06/22 02:34:36;;;;;;;13.20;9.95;;;10.90;99.90;;;;;;5053547;28;20546;-27
2022/06/22 02:37:07;;;;;;;11.40;10.18;;;10.80;99.90;;;;;;5053358;28;20102;-27
2022/06/22 02:39:40;;;;;;;10.57;9.48;;;10.80;99.90;;;;;;5053531;28;20137;-27
2022/06/22 02:44:51;;;;;;;11.82;10.02;;;10.70;99.90;;;;;;5048107;28;20115;-28
2022/06/22 02:47:56;;;;;;;11.55;10.35;;;10.70;99.90;;;;;;5049071;28;20080;-29
2022/06/22 02:50:30;;;;;;;13.57;10.77;;;10.70;99.90;;;;;;5044484;28;20064;-29
2022/06/22 02:52:58;;;;;;;;;;;10.70;99.90;;;;;;5050636;28;20100;-29
2022/06/22 02:55:29;;;;;;;12.20;10.45;;;10.70;99.90;;;;;;5052585;28;19959;-27
2022/06/22 02:57:58;;;;;;;12.00;10.68;;;10.60;99.90;;;;;;5053137;28;20124;-29
2022/06/22 03:00:29;;;;;;;11.55;9.55;;;10.60;99.90;;;;;;5054042;28;20098;-27
2022/06/22 03:02:59;;;;;;;11.38;10.20;;;10.50;99.90;;;;;;5053786;28;20480;-26
2022/06/22 03:05:26;;;;;;;12.00;10.55;;;10.50;99.90;;;;;;5044350;28;20049;-26
2022/06/22 03:07:54;;;;;;;11.48;10.30;;;10.50;99.90;;;;;;5032898;28;20037;-26
2022/06/22 03:10:36;;;;;;;12.38;10.90;;;10.50;99.90;;;;;;5032607;28;20068;-26
2022/06/22 03:13:02;;;;;;;11.63;9.75;;;10.50;99.90;;;;;;5014738;28;20042;-26
2022/06/22 03:15:32;;;;;;;12.00;10.07;;;10.50;99.90;;;;;;5032829;28;20029;-26
2022/06/22 03:18:00;;;;;;;11.82;10.20;;;10.40;99.90;;;;;;5015562;28;20048;-26
2022/06/22 03:20:29;;;;;;;11.02;10.02;;;10.40;99.90;;;;;;5032568;28;20037;-26
2022/06/22 03:23:00;;;;;;;13.30;11.05;;;10.40;99.90;;;;;;5032197;28;20167;-26
2022/06/22 03:25:36;;;;;;;15.45;11.80;;;10.40;99.90;;;;;;5049857;28;20506;-26
2022/06/22 03:28:07;;;;;;;14.15;11.32;;;10.40;99.90;;;;;;5052183;28;20041;-26
2022/06/22 03:30:47;;;;;;;15.32;11.82;;;10.40;99.90;;;;;;5034511;28;20056;-26
2022/06/22 03:33:18;;;;;;;12.88;11.52;;;10.40;99.90;;;;;;5052470;28;20037;-26
2022/06/22 03:35:53;;;;;;;13.15;11.80;;;10.40;99.90;;;;;;5047948;28;20042;-26
2022/06/22 03:38:33;;;;;;;13.85;12.45;;;10.40;99.90;;;;;;5048752;28;20040;-29
2022/06/22 03:41:03;;;;;;;12.80;11.18;;;10.40;99.90;;;;;;5051175;28;20045;-27
2022/06/22 03:43:40;;;;;;;11.40;10.25;;;10.30;99.90;;;;;;5033944;28;20036;-26
2022/06/22 03:46:17;;;;;;;12.15;10.93;;;10.30;99.90;;;;;;5051794;28;20049;-26
2022/06/22 03:48:52;;;;;;;11.77;10.57;;;10.40;99.90;;;;;;5034058;28;20102;-26
2022/06/22 03:51:26;;;;;;;11.75;10.30;;;10.40;99.90;;;;;;5052056;28;20059;-26
2022/06/22 03:54:09;;;;;;;11.57;10.32;;;10.30;99.90;;;;;;5052569;28;20037;-26
2022/06/22 03:56:44;;;;;;;12.57;10.25;;;10.40;99.90;;;;;;5032631;28;20045;-26
2022/06/22 03:59:10;;;;;;;12.63;11.32;;;10.40;99.90;;;;;;5014811;28;20397;-26
2022/06/22 04:01:37;;;;;;;13.90;11.80;;;10.40;99.90;;;;;;5032177;28;20045;-26
2022/06/22 04:04:04;;;;;;;12.13;10.93;;;10.40;99.90;;;;;;5044889;28;20040;-27
2022/06/22 04:06:34;;;;;;;14.75;12.02;;;10.40;99.90;;;;;;5051914;28;20043;-27
2022/06/22 04:09:02;;;;;;;12.43;11.20;;;10.40;99.90;;;;;;5052108;28;20037;-26
2022/06/22 04:11:36;;;;;;;13.13;11.75;;;10.50;99.90;;;;;;5051966;28;20037;-26
2022/06/22 04:14:27;;;;;;;12.55;11.25;;;10.50;99.90;;;;;;5051998;28;20041;-26
2022/06/22 04:16:59;;;;;;;12.70;11.45;;;10.50;99.90;;;;;;5051760;28;20041;-26
2022/06/22 04:19:36;;;;;;;13.70;12.10;;;10.50;99.90;;;;;;5051939;28;20418;-26
2022/06/22 04:22:19;;;;;;;13.90;12.43;;;10.60;99.90;;;;;;5052840;28;20072;-26
2022/06/22 04:24:48;;;;;;;14.85;12.50;;;10.60;99.90;;;;;;5052148;28;20386;-27
2022/06/22 04:27:26;;;;;;;15.70;13.65;;;10.70;99.90;;;;;;5051501;28;20574;-27
2022/06/22 04:30:21;;;;;;;16.33;12.75;;;10.70;99.90;;;;;;5051325;28;20041;-28
2022/06/22 04:32:58;;;;;;;15.30;12.85;;;10.70;99.90;;;;;;5014266;28;20077;-26
2022/06/22 04:35:43;;;;;;;14.52;13.02;;;10.80;99.90;;;;;;5031183;28;20121;-26
2022/06/22 04:38:31;;;;;;;16.17;12.52;;;10.80;99.90;;;;;;5031854;28;20041;-26
2022/06/22 04:41:32;;;;;;;17.33;13.45;;;10.80;99.90;;;;;;5031857;28;20216;-26
2022/06/22 04:44:03;;;;;;;17.70;14.20;;;10.90;99.90;;;;;;5003705;28;20493;-26
2022/06/22 04:46:32;;;;;;;17.67;13.60;;;10.90;99.90;;;;;;5031408;28;20042;-26
2022/06/22 04:49:06;;;;;;;17.80;15.07;;;11.00;99.90;;;;;;5031552;28;20124;-26
2022/06/22 04:51:35;;;;;;;17.63;14.00;;;11.10;99.90;;;;;;5036903;28;20094;-27
2022/06/22 04:54:31;;;;;;;18.23;15.10;;;11.10;99.90;;;;;;5058392;28;20402;-27
2022/06/22 04:57:01;;;;;;;18.23;15.63;;;11.20;99.90;;;;;;5038554;28;20396;-27
2022/06/22 04:59:29;;;;;;;21.80;16.38;;;11.30;99.90;;;;;;5038296;28;20045;-27
2022/06/22 05:01:59;;;;;;;22.17;16.40;;;11.40;99.90;;;;;;5038337;28;20048;-27
2022/06/22 05:04:39;;;;;;;24.15;17.65;;;11.50;99.90;;;;;;5040230;28;20049;-27
2022/06/22 05:07:44;;;;;;;25.25;17.90;;;11.60;99.90;;;;;;5058445;28;20370;-27
2022/06/22 05:10:37;;;;;;;22.58;17.02;;;11.70;99.90;;;;;;5038292;28;20556;-27
2022/06/22 05:13:09;;;;;;;20.88;16.40;;;11.80;99.90;;;;;;5046529;28;20044;-27
2022/06/22 05:15:38;;;;;;;23.17;17.45;;;11.90;99.90;;;;;;5058523;28;20120;-27
2022/06/22 05:18:11;;;;;;;22.40;17.65;;;12.00;99.90;;;;;;5057932;28;20037;-27
2022/06/22 05:20:46;;;;;;;20.67;16.85;;;12.10;99.90;;;;;;5058264;28;20484;-27
2022/06/22 05:23:13;;;;;;;23.85;15.70;;;12.20;99.90;;;;;;5049891;28;20076;-28
2022/06/22 05:25:43;;;;;;;22.90;16.85;;;12.30;99.90;;;;;;5057676;28;20101;-27
2022/06/22 05:28:13;;;;;;;20.38;17.08;;;12.40;99.90;;;;;;5057003;28;20044;-27
2022/06/22 05:30:48;;;;;;;22.10;17.33;;;12.50;99.90;;;;;;5056053;28;20524;-26
2022/06/22 05:33:18;;;;;;;22.67;17.35;;;12.60;99.90;;;;;;5056813;28;20102;-27
2022/06/22 05:35:59;;;;;;;21.55;16.85;;;12.70;99.90;;;;;;5056887;28;20486;-27
2022/06/22 05:38:27;;;;;;;22.92;18.20;;;12.80;99.90;;;;;;5056824;28;20508;-27
2022/06/22 05:40:53;;;;;;;20.73;17.80;;;13.00;99.90;;;;;;5038403;28;20051;-27
2022/06/22 05:43:20;;;;;;;22.35;18.17;;;13.10;99.90;;;;;;5056646;28;20501;-27
2022/06/22 05:46:02;;;;;;;22.67;17.73;;;13.30;99.90;;;;;;5040490;28;20072;-27
2022/06/22 05:48:31;;;;;;;23.45;16.48;;;13.40;99.90;;;;;;5024767;28;20044;-27
2022/06/22 05:51:13;;;;;;;22.17;16.77;;;13.50;99.90;;;;;;5057621;28;20147;-27
2022/06/22 05:53:49;;;;;;;22.67;18.23;;;13.70;99.90;;;;;;5058200;28;20076;-27
2022/06/22 05:56:25;;;;;;;20.48;17.23;;;13.80;99.90;;;;;;5040036;28;20033;-27
2022/06/22 05:59:06;;;;;;;22.35;16.35;;;13.90;99.90;;;;;;5058163;28;20091;-27
2022/06/22 06:01:38;;;;;;;22.40;16.15;;;14.10;99.90;;;;;;5020640;28;20047;-27
2022/06/22 06:04:20;;;;;;;18.60;15.25;;;14.20;99.90;;;;;;5024771;28;20047;-27
2022/06/22 06:06:48;;;;;;;21.02;15.38;;;14.40;99.90;;;;;;5054846;28;20049;-31
2022/06/22 06:09:20;;;;;;;21.45;16.45;;;14.50;99.90;;;;;;5036731;28;20052;-27
2022/06/22 06:11:54;;;;;;;21.38;16.75;;;14.60;99.90;;;;;;5054419;28;20500;-27
2022/06/22 06:14:27;;;;;;;18.77;16.33;;;14.80;99.90;;;;;;5036573;28;20068;-27
2022/06/22 06:16:58;;;;;;;20.23;15.30;;;14.90;99.90;;;;;;5054500;28;20041;-27
2022/06/22 06:19:29;;;;;;;20.15;16.73;;;15.00;99.90;;;;;;5054516;28;20037;-27
2022/06/22 06:21:59;;;;;;;19.10;16.33;;;15.10;99.90;;;;;;5039863;28;20212;-27
2022/06/22 06:27:34;;;;;;;19.67;14.85;;;15.30;99.90;;;;;;5054345;28;20033;-27
2022/06/22 06:27:38;;;;;;;18.30;14.65;;;15.40;99.90;;;;;;5053618;28;20045;-27
2022/06/22 06:30:17;;;;;;;16.63;14.25;;;15.50;99.90;;;;;;5036066;28;20053;-27
2022/06/22 06:32:46;;;;;;;18.20;13.70;;;15.60;99.90;;;;;;5053699;28;20500;-27
2022/06/22 06:35:30;;;;;;;17.58;13.18;;;15.70;99.90;;;;;;5035771;28;20048;-27
2022/06/22 06:38:23;;;;;;;17.67;13.13;;;15.80;99.90;;;;;;5033625;28;20050;-27
2022/06/22 06:41:12;;;;;;;17.17;13.20;;;15.90;99.90;;;;;;5047899;28;20041;-27
2022/06/22 06:44:01;;;;;;;14.88;11.35;;;16.10;99.90;;;;;;5054044;28;20477;-27
2022/06/22 06:46:45;;;;;;;11.40;10.20;;;16.20;99.90;;;;;;5053367;28;20396;-27
2022/06/22 06:49:31;;;;;;;10.70;9.40;;;16.30;99.90;;;;;;5053606;28;20488;-28
2022/06/22 06:52:26;;;;;;;11.48;8.88;;;16.40;99.90;;;;;;5018921;28;20063;-27
2022/06/22 06:55:01;;;;;;;9.95;8.95;;;16.50;99.90;;;;;;5042802;28;20128;-27
2022/06/22 06:57:29;;;;;;;11.75;8.48;;;16.70;99.90;;;;;;5053150;28;20083;-28
2022/06/22 07:00:00;;;;;;;10.32;8.80;;;16.80;99.90;;;;;;5053200;28;20513;-27
2022/06/22 07:02:34;;;;;;;11.57;9.10;;;16.90;99.90;;;;;;5035261;28;20044;-27
2022/06/22 07:05:03;;;;;;;13.68;9.00;;;17.00;99.90;;;;;;5053111;28;20049;-27
2022/06/22 07:07:48;;;;;;;10.32;8.82;;;17.10;99.90;;;;;;5053249;28;20132;-27
2022/06/22 07:10:20;;;;;;;10.93;8.75;;;17.30;99.90;;;;;;5053120;28;20119;-27
2022/06/22 07:13:01;;;;;;;10.85;8.20;;;17.40;99.90;;;;;;5052946;28;20125;-27
2022/06/22 07:15:33;;;;;;;11.98;8.50;;;17.50;99.90;;;;;;5034750;28;20041;-28
2022/06/22 07:18:11;;;;;;;7.78;6.97;;;17.70;99.90;;;;;;5052891;28;20037;-27
2022/06/22 07:20:43;;;;;;;9.02;7.03;;;17.80;99.90;;;;;;5032598;28;20037;-27
2022/06/22 07:23:25;;;;;;;9.68;8.25;;;17.90;99.90;;;;;;5032766;28;20116;-27
2022/06/22 07:26:02;;;;;;;8.02;6.97;;;18.00;99.90;;;;;;5039522;28;20508;-27
2022/06/22 07:28:57;;;;;;;11.85;8.00;;;18.20;99.90;;;;;;5052485;28;20458;-27
2022/06/22 07:31:33;;;;;;;9.13;6.80;;;18.30;99.90;;;;;;5016998;28;20386;-27
2022/06/22 07:34:15;;;;;;;7.70;6.80;;;18.40;99.90;;;;;;5052679;28;20045;-27
2022/06/22 07:36:48;;;;;;;7.35;6.28;;;18.50;99.90;;;;;;5052818;28;20049;-27
2022/06/22 07:39:20;;;;;;;7.70;6.32;;;18.70;99.90;;;;;;5052424;28;20043;-27
2022/06/22 07:41:46;;;;;;;8.45;5.50;;;18.80;99.90;;;;;;5052434;28;20037;-27
2022/06/22 07:44:19;;;;;;;7.32;5.03;;;18.90;99.90;;;;;;5052314;28;20041;-27
2022/06/22 07:47:23;;;;;;;6.53;5.80;;;19.00;99.90;;;;;;5052844;28;20087;-27
2022/06/22 07:50:01;;;;;;;5.03;4.63;;;19.20;99.90;;;;;;5009699;28;20292;-27
2022/06/22 07:52:39;;;;;;;7.05;5.35;;;19.20;99.90;;;;;;5033703;28;20049;-27
2022/06/22 07:55:31;;;;;;;5.25;4.55;;;19.30;99.90;;;;;;5052907;28;20241;-27
2022/06/22 07:58:22;;;;;;;7.22;4.53;;;19.40;99.90;;;;;;5052694;28;20125;-27
2022/06/22 08:00:53;;;;;;;6.70;4.22;;;19.60;99.90;;;;;;5056063;28;20089;-27
2022/06/22 08:03:34;;;;;;;4.93;4.28;;;19.70;99.90;;;;;;5072423;28;20248;-27
2022/06/22 08:06:08;;;;;;;6.43;4.30;;;19.90;99.90;;;;;;5055978;28;20070;-27
2022/06/22 08:08:42;;;;;;;6.10;4.50;;;20.00;99.90;;;;;;5052503;28;20397;-27
2022/06/22 08:11:21;;;;;;;3.95;3.47;;;20.10;99.90;;;;;;5052035;28;20052;-27
2022/06/22 08:13:59;;;;;;;4.45;3.55;;;20.30;99.90;;;;;;5051773;28;20036;-27
2022/06/22 08:16:33;;;;;;;5.03;3.78;;;20.50;99.90;;;;;;5060042;28;20037;-27
2022/06/22 08:19:01;;;;;;;3.60;3.30;;;20.50;99.50;;;;;;5027860;28;20045;-29
2022/06/22 08:21:28;;;;;;;3.28;2.95;;;20.70;99.90;;;;;;5016954;28;20183;-27
2022/06/22 08:23:55;;;;;;;3.28;2.40;;;20.80;98.20;;;;;;5015189;28;20481;-27
2022/06/22 08:26:29;;;;;;;4.03;2.50;;;20.80;96.90;;;;;;5031498;28;20148;-27
2022/06/22 08:28:55;;;;;;;5.75;2.67;;;21.10;96.50;;;;;;5031580;28;20037;-27
2022/06/22 08:31:20;;;;;;;2.55;2.28;;;21.30;95.30;;;;;;5043506;28;20051;-27
2022/06/22 08:33:56;;;;;;;4.07;2.15;;;21.40;90.90;;;;;;5051637;28;20154;-27
2022/06/22 08:36:36;;;;;;;2.50;1.85;;;21.50;91.50;;;;;;5051631;28;20427;-27
2022/06/22 08:39:25;;;;;;;3.08;2.40;;;21.80;84.90;;;;;;5046350;28;20041;-28
2022/06/22 08:42:11;;;;;;;2.78;2.05;;;21.90;88.20;;;;;;5030748;28;20394;-28
2022/06/22 08:45:13;;;;;;;3.17;1.73;;;22.10;85.90;;;;;;5031215;28;20056;-28
2022/06/22 08:48:13;;;;;;;6.10;2.70;;;22.30;83.60;;;;;;5031907;28;20426;-27
2022/06/22 08:51:01;;;;;;;3.80;2.08;;;22.50;72.30;;;;;;5048232;28;20069;-27
2022/06/22 08:54:07;;;;;;;2.65;2.35;;;22.50;74.90;;;;;;5051827;28;20120;-27
2022/06/22 08:56:41;;;;;;;2.90;2.30;;;22.80;71.70;;;;;;5052292;28;20052;-27
2022/06/22 09:00:01;;;;;;;2.80;2.13;;;22.90;71.30;;;;;;5051512;28;20439;-28
2022/06/22 09:02:38;;;;;;;2.35;2.15;;;23.20;72.60;;;;;;4951261;29;20402;-27
2022/06/22 09:05:15;;;;;;;3.72;1.92;;;23.30;66.10;;;;;;5021375;28;20091;-27
2022/06/22 09:07:44;;;;;;;3.08;2.03;;;23.50;69.10;;;;;;5051682;28;20412;-27
2022/06/22 09:10:34;;;;;;;2.35;2.15;;;23.50;68.90;;;;;;5051582;28;20492;-27
2022/06/22 09:13:32;;;;;;;3.10;2.42;;;23.70;60.00;;;;;;5052141;28;20472;-27
2022/06/22 09:16:23;;;;;;;2.55;2.05;;;23.90;62.10;;;;;;5037670;28;20052;-27
2022/06/22 09:18:58;;;;;;;2.65;2.20;;;24.10;57.10;;;;;;5033377;28;20447;-27
2022/06/22 09:21:54;;;;;;;3.30;2.00;;;24.10;56.70;;;;;;5051682;28;20084;-27
2022/06/22 09:24:45;;;;;;;2.40;2.17;;;24.20;54.90;;;;;;5031116;28;20131;-27
2022/06/22 09:27:13;;;;;;;4.28;2.70;;;24.20;57.60;;;;;;5041909;28;20037;-29
2022/06/22 09:30:17;;;;;;;5.13;2.45;;;24.30;58.80;;;;;;5071096;28;20048;-29
2022/06/22 09:33:05;;;;;;;4.68;2.20;;;24.70;55.50;;;;;;5066087;28;20562;-28
2022/06/22 09:35:36;;;;;;;3.08;2.05;;;24.70;57.60;;;;;;5057022;28;20036;-29
2022/06/22 09:38:29;;;;;;;2.85;2.08;;;24.90;59.40;;;;;;5056373;28;20500;-29
2022/06/22 09:41:16;;;;;;;3.00;1.95;;;25.20;51.10;;;;;;5034958;28;20238;-29
2022/06/22 09:44:10;;;;;;;2.80;2.13;;;25.50;58.60;;;;;;5035939;28;20045;-27
2022/06/22 09:46:50;;;;;;;3.47;2.60;;;25.70;57.30;;;;;;5055482;28;20178;-27
2022/06/22 09:49:22;;;;;;;3.08;2.17;;;25.90;54.20;;;;;;5036989;28;20067;-28
2022/06/22 09:52:29;;;;;;;3.67;2.28;;;26.10;56.80;;;;;;5054786;28;20492;-28
2022/06/22 09:58:25;;;;;;;2.90;1.70;;;26.50;56.00;;;;;;5072918;28;20044;-28
2022/06/22 10:00:53;;;;;;;2.17;1.98;;;26.70;51.90;;;;;;5035001;28;20508;-28
2022/06/22 10:03:45;;;;;;;2.75;2.30;;;26.80;52.70;;;;;;5047337;28;20170;-28
2022/06/22 10:06:35;;;;;;;3.03;2.15;;;26.80;50.80;;;;;;5054673;28;20045;-29
2022/06/22 10:09:33;;;;;;;2.72;2.33;;;26.90;48.50;;;;;;5037627;28;20124;-28
2022/06/22 10:12:14;;;;;;;2.70;2.30;;;27.00;49.50;;;;;;5034645;28;20037;-28
2022/06/22 10:14:54;;;;;;;3.67;2.28;;;27.10;47.00;;;;;;5037051;28;20043;-28
2022/06/22 10:17:47;;;;;;;2.60;2.30;;;27.10;49.30;;;;;;5054030;28;20041;-28
2022/06/22 10:20:41;;;;;;;2.50;2.10;;;27.20;47.70;;;;;;5020624;28;20044;-28
2022/06/22 10:23:10;;;;;;;3.90;2.05;;;27.30;47.00;;;;;;5037622;28;20401;-27
2022/06/22 10:26:00;;;;;;;4.07;2.42;;;27.40;48.70;;;;;;5035619;28;20045;-28
2022/06/22 10:28:44;;;;;;;5.38;1.67;;;27.70;46.20;;;;;;5054218;28;20138;-28
2022/06/22 10:31:19;;;;;;;4.03;2.08;;;27.90;45.70;;;;;;5054994;28;20040;-28
2022/06/22 10:34:06;;;;;;;2.58;1.88;;;28.00;46.50;;;;;;5055043;28;20362;-28
2022/06/22 10:36:47;;;;;;;4.47;2.05;;;28.00;43.00;;;;;;5053032;28;20041;-28
2022/06/22 10:39:44;;;;;;;2.40;1.90;;;28.10;47.00;;;;;;5054554;28;20111;-28
2022/06/22 10:45:16;;;;;;;4.75;2.10;;;28.10;43.60;;;;;;5042136;28;20041;-28
2022/06/22 10:48:13;;;;;;;3.75;1.75;;;28.40;44.50;;;;;;5034278;28;20049;-28
2022/06/22 10:50:54;;;;;;;2.47;1.40;;;28.50;42.80;;;;;;5053582;28;20048;-28
2022/06/22 10:54:11;;;;;;;2.38;1.33;;;28.60;42.80;;;;;;5035687;28;20076;-28
2022/06/22 10:56:58;;;;;;;1.25;1.05;;;28.60;41.20;;;;;;5048865;28;20052;-28
2022/06/22 10:59:55;;;;;;;1.75;1.13;;;28.70;38.80;;;;;;5053393;28;20408;-28
2022/06/22 11:02:27;;;;;;;1.42;1.13;;;28.70;37.90;;;;;;5064064;28;20037;-27
2022/06/22 11:05:19;;;;;;;1.92;1.10;;;28.60;40.10;;;;;;5027890;28;20088;-28
2022/06/22 11:08:23;;;;;;;1.58;1.10;;;28.70;38.50;;;;;;5000436;28;20052;-28
2022/06/22 11:10:58;;;;;;;2.65;1.70;;;29.00;39.20;;;;;;5043699;28;20032;-28
2022/06/22 11:13:42;;;;;;;4.45;1.50;;;28.70;39.90;;;;;;5037250;28;20048;-28
2022/06/22 11:16:17;;;;;;;1.50;1.40;;;28.80;40.00;;;;;;5039115;28;20552;-28
2022/06/22 11:18:58;;;;;;;1.90;1.40;;;28.80;41.10;;;;;;5037022;28;20060;-27
2022/06/22 11:21:39;;;;;;;1.67;1.10;;;29.00;39.70;;;;;;5036642;28;20120;-28
2022/06/22 11:24:27;;;;;;;2.38;1.30;;;29.20;39.40;;;;;;5033202;28;20041;-28
2022/06/22 11:30:48;;;;;;;3.42;1.30;;;29.20;37.10;;;;;;5047499;28;20508;-28
2022/06/22 11:33:44;;;;;;;1.38;1.25;;;29.20;34.90;;;;;;5045385;28;20140;-29
2022/06/22 11:36:31;;;;;;;2.28;1.52;;;29.00;37.30;;;;;;5034549;28;20045;-28
2022/06/22 11:39:17;;;;;;;1.60;1.50;;;29.00;39.20;;;;;;5053115;28;20049;-27
2022/06/22 11:42:20;;;;;;;1.65;1.10;;;28.90;38.90;;;;;;5043800;28;20099;-28
2022/06/22 11:48:20;;;;;;;2.38;1.25;;;29.00;38.30;;;;;;5052245;28;19920;-28
2022/06/22 11:50:56;;;;;;;1.73;1.25;;;29.20;36.70;;;;;;5052524;28;20404;-28
2022/06/22 11:53:22;;;;;;;1.48;1.10;;;29.40;37.00;;;;;;5059939;28;20051;-28
2022/06/22 11:55:51;;;;;;;1.60;1.13;;;29.60;38.40;;;;;;5040676;28;20124;-28
2022/06/22 11:58:38;;;;;;;1.70;1.00;;;30.00;36.60;;;;;;5034860;28;20044;-28
2022/06/22 12:01:23;;;;;;;2.58;1.13;;;30.30;35.80;;;;;;5051733;28;20041;-28
2022/06/22 12:04:21;;;;;;;1.98;1.20;;;30.30;35.80;;;;;;5044956;28;20032;-28
2022/06/22 12:06:53;;;;;;;1.30;1.20;;;30.30;36.30;;;;;;5065760;28;20412;-29
2022/06/22 12:09:31;;;;;;;1.42;1.17;;;30.50;36.20;;;;;;5052122;28;20489;-28
2022/06/22 12:12:21;;;;;;;2.22;1.60;;;30.30;36.00;;;;;;5043029;28;20041;-28
2022/06/22 12:15:05;;;;;;;2.17;1.40;;;30.30;36.80;;;;;;5018096;28;20052;-28
2022/06/22 12:17:31;;;;;;;1.63;1.25;;;30.30;36.30;;;;;;5051341;28;20076;-28
2022/06/22 12:20:02;;;;;;;2.25;1.20;;;30.40;35.90;;;;;;5028821;28;20041;-28
2022/06/22 12:22:37;;;;;;;3.47;1.45;;;30.60;36.30;;;;;;5043475;28;20389;-28
2022/06/22 12:25:24;;;;;;;1.80;1.30;;;30.80;35.80;;;;;;5052026;28;20169;-29
2022/06/22 12:28:00;;;;;;;4.22;1.35;;;30.90;36.20;;;;;;5031870;28;20045;-29
2022/06/22 12:30:50;;;;;;;1.70;1.45;;;31.20;36.20;;;;;;5051103;28;20044;-29
2022/06/22 12:33:33;;;;;;;1.55;1.23;;;31.50;37.10;;;;;;5052159;28;20047;-28
2022/06/22 12:36:18;;;;;;;1.65;1.33;;;31.50;35.80;;;;;;5052277;28;20095;-29
2022/06/22 12:38:50;;;;;;;2.08;1.30;;;31.60;35.20;;;;;;5050494;28;20043;-28
2022/06/22 12:41:22;;;;;;;2.25;1.40;;;31.60;36.40;;;;;;5039243;28;20049;-28
2022/06/22 12:43:58;;;;;;;1.88;1.38;;;31.50;35.30;;;;;;5052062;28;20047;-28
2022/06/22 12:46:40;;;;;;;1.65;1.30;;;31.60;35.10;;;;;;5051350;28;20037;-28
2022/06/22 12:49:34;;;;;;;2.22;1.30;;;31.70;35.40;;;;;;5050059;28;20091;-28
2022/06/22 12:52:26;;;;;;;1.05;0.95;;;32.20;36.50;;;;;;5041708;28;20158;-28
2022/06/22 12:54:57;;;;;;;1.90;1.33;;;32.40;34.70;;;;;;5045439;28;20047;-29
2022/06/22 12:57:34;;;;;;;2.57;1.40;;;32.20;34.60;;;;;;5049594;28;20049;-27
2022/06/22 13:00:06;;;;;;;2.88;1.13;;;32.20;34.20;;;;;;5050951;28;20068;-28
2022/06/22 13:02:36;;;;;;;1.85;1.40;;;32.50;34.00;;;;;;5051464;28;20053;-28
2022/06/22 13:05:25;;;;;;;1.52;1.10;;;32.50;33.90;;;;;;5051441;28;20044;-28
2022/06/22 13:08:03;;;;;;;1.38;1.10;;;32.80;32.50;;;;;;5051284;28;20382;-28
2022/06/22 13:10:35;;;;;;;1.50;1.20;;;32.90;32.60;;;;;;5037826;28;20044;-29
2022/06/22 13:13:10;;;;;;;3.50;1.13;;;32.80;32.50;;;;;;5051218;28;20083;-28
2022/06/22 13:15:45;;;;;;;1.90;1.42;;;33.10;32.00;;;;;;5033496;28;20475;-28
2022/06/22 13:18:11;;;;;;;1.25;1.15;;;33.00;31.10;;;;;;5035007;28;20038;-28
2022/06/22 13:21:08;;;;;;;2.45;1.10;;;32.80;32.60;;;;;;5054718;28;20051;-28
2022/06/22 13:23:51;;;;;;;1.27;1.17;;;32.80;32.60;;;;;;5054999;28;20401;-28
2022/06/22 13:26:21;;;;;;;1.45;1.10;;;32.90;32.00;;;;;;5055199;28;20404;-28
2022/06/22 13:28:59;;;;;;;2.90;1.13;;;33.10;31.00;;;;;;5055217;28;20036;-28
2022/06/22 13:31:31;;;;;;;2.22;1.20;;;33.20;31.50;;;;;;5055220;28;20037;-27
2022/06/22 13:34:06;;;;;;;1.40;1.00;;;33.40;31.10;;;;;;5054977;28;20120;-28
2022/06/22 13:36:38;;;;;;;2.03;0.90;;;33.60;30.80;;;;;;5054845;28;20116;-28
2022/06/22 13:39:13;;;;;;;2.22;1.02;;;33.40;30.70;;;;;;5055041;28;20040;-28
2022/06/22 13:41:48;;;;;;;2.65;1.10;;;33.50;30.10;;;;;;5054938;28;20040;-28
2022/06/22 13:44:43;;;;;;;1.77;1.00;;;33.40;30.90;;;;;;5054345;28;20119;-28
2022/06/22 13:47:09;;;;;;;3.25;1.10;;;33.30;31.10;;;;;;5053413;28;20051;-28
2022/06/22 13:50:14;;;;;;;2.05;1.13;;;33.20;31.20;;;;;;5054846;28;20037;-28
2022/06/22 13:52:44;;;;;;;1.40;1.20;;;33.20;31.30;;;;;;5054500;28;20062;-28
2022/06/22 13:55:28;;;;;;;3.30;1.10;;;33.50;31.10;;;;;;5036452;28;20044;-28